createdAt,value
2023-05-23T00:00:24.324Z,98528.84
2023-05-23T00:02:50.558Z,98533.41
2023-05-23T00:05:16.732Z,98510.25
2023-05-23T00:07:42.901Z,98519.97
2023-05-23T00:10:09.078Z,98511.94
2023-05-23T00:12:35.256Z,98516.47
2023-05-23T00:15:01.445Z,98511.09
2023-05-23T00:17:27.619Z,98511.09
2023-05-23T00:19:53.758Z,98499.53
2023-05-23T00:22:19.945Z,98511.09
2023-05-23T00:24:46.082Z,98510.25
2023-05-23T00:27:12.244Z,98512.94
2023-05-23T00:29:38.442Z,98514.59
2023-05-23T00:32:04.589Z,98512.38
2023-05-23T00:34:30.722Z,98514.00
2023-05-23T00:36:56.878Z,98511.31
2023-05-23T00:39:23.003Z,98503.25
2023-05-23T00:41:51.375Z,98502.44
2023-05-23T00:44:18.734Z,98515.06
2023-05-23T00:46:44.932Z,98520.44
2023-05-23T00:49:11.100Z,98525.81
2023-05-23T00:51:37.307Z,98531.19
2023-05-23T00:54:03.468Z,98520.44
2023-05-23T00:56:29.603Z,98532.81
2023-05-23T00:58:55.780Z,98530.34
2023-05-23T01:01:21.983Z,98532.22
2023-05-23T01:03:48.234Z,98536.97
2023-05-23T01:06:14.550Z,98537.81
2023-05-23T01:08:40.704Z,98549.38
2023-05-23T01:11:06.845Z,98545.03
2023-05-23T01:13:33.018Z,98549.38
2023-05-23T01:16:01.211Z,98546.91
2023-05-23T01:18:28.993Z,98543.41
2023-05-23T01:20:55.148Z,98541.78
2023-05-23T01:23:21.293Z,98546.31
2023-05-23T01:25:47.421Z,98545.50
2023-05-23T01:28:13.586Z,98533.13
2023-05-23T01:30:39.737Z,98543.84
2023-05-23T01:33:05.973Z,98537.63
2023-05-23T01:35:32.190Z,98548.63
2023-05-23T01:37:58.327Z,98551.06
2023-05-23T01:40:24.475Z,98545.94
2023-05-23T01:42:50.634Z,98556.69
2023-05-23T01:45:16.774Z,98561.00
2023-05-23T01:47:42.978Z,98551.31
2023-05-23T01:50:09.187Z,98560.38
2023-05-23T01:52:35.358Z,98568.25
2023-05-23T01:55:01.521Z,98560.38
2023-05-23T01:57:27.825Z,98560.38
2023-05-23T01:59:53.963Z,98560.38
2023-05-23T02:02:20.153Z,98565.75
2023-05-23T02:04:46.350Z,98569.50
2023-05-23T02:07:12.505Z,98565.75
2023-05-23T02:09:38.639Z,98571.59
2023-05-23T02:12:04.809Z,98566.81
2023-05-23T02:14:30.964Z,98569.28
2023-05-23T02:16:57.214Z,98562.06
2023-05-23T02:19:23.429Z,98566.59
2023-05-23T02:21:49.607Z,98557.50
2023-05-23T02:24:15.762Z,98572.78
2023-05-23T02:26:42.066Z,98571.97
2023-05-23T02:29:08.237Z,98570.09
2023-05-23T02:31:34.381Z,98568.69
2023-05-23T02:34:00.566Z,98566.59
2023-05-23T02:36:26.713Z,98571.97
2023-05-23T02:38:52.856Z,98571.13
2023-05-23T02:41:19.048Z,98572.19
2023-05-23T02:43:46.856Z,98571.38
2023-05-23T02:46:13.153Z,98579.19
2023-05-23T02:48:39.359Z,98571.13
2023-05-23T02:51:05.680Z,98573.00
2023-05-23T02:53:31.831Z,98571.13
2023-05-23T02:55:57.975Z,98560.38
2023-05-23T02:58:24.134Z,98564.13
2023-05-23T03:00:50.267Z,98566.00
2023-05-23T03:03:16.536Z,98561.44
2023-05-23T03:05:43.114Z,98561.44
2023-05-23T03:08:09.542Z,98561.44
2023-05-23T03:10:35.913Z,98554.44
2023-05-23T03:13:02.185Z,98557.13
2023-05-23T03:15:28.462Z,98556.06
2023-05-23T03:17:54.800Z,98557.13
2023-05-23T03:20:21.107Z,98567.03
2023-05-23T03:22:47.400Z,98558.16
2023-05-23T03:25:13.729Z,98570.78
2023-05-23T03:27:40.013Z,98568.09
2023-05-23T03:30:06.326Z,98564.59
2023-05-23T03:32:32.655Z,98567.03
2023-05-23T03:34:58.977Z,98564.59
2023-05-23T03:37:25.260Z,98569.97
2023-05-23T03:39:51.579Z,98573.66
2023-05-23T03:42:17.860Z,98568.28
2023-05-23T03:44:44.149Z,98568.28
2023-05-23T03:47:10.437Z,98572.63
2023-05-23T03:49:36.705Z,98570.97
2023-05-23T03:52:02.983Z,98568.53
2023-05-23T03:54:29.304Z,98575.75
2023-05-23T03:56:55.599Z,98573.06
2023-05-23T03:59:21.871Z,98582.97
2023-05-23T04:01:48.160Z,98584.66
2023-05-23T04:04:14.484Z,98584.66
2023-05-23T04:06:40.810Z,98592.69
2023-05-23T04:09:07.180Z,98595.59
2023-05-23T04:11:33.469Z,98604.72
2023-05-23T04:13:59.748Z,98600.16
2023-05-23T04:16:26.220Z,98607.59
2023-05-23T04:18:52.577Z,98594.19
2023-05-23T04:21:18.888Z,98605.13
2023-05-23T04:23:45.122Z,98599.75
2023-05-23T04:26:11.261Z,98602.44
2023-05-23T04:28:37.414Z,98606.78
2023-05-23T04:31:03.729Z,98610.72
2023-05-23T04:33:29.903Z,98620.63
2023-05-23T04:35:56.047Z,98617.13
2023-05-23T04:38:22.215Z,98618.19
2023-05-23T04:40:48.376Z,98622.75
2023-05-23T04:43:14.603Z,98618.38
2023-05-23T04:45:40.988Z,98616.75
2023-05-23T04:48:07.315Z,98618.38
2023-05-23T04:50:33.538Z,98629.13
2023-05-23T04:52:59.726Z,98622.13
2023-05-23T04:55:26.064Z,98618.38
2023-05-23T04:57:53.585Z,98620.06
2023-05-23T05:00:20.501Z,98620.25
2023-05-23T05:02:46.735Z,98626.44
2023-05-23T05:05:12.921Z,98632.88
2023-05-23T05:07:39.157Z,98631.59
2023-05-23T05:10:05.297Z,98635.94
2023-05-23T05:12:31.443Z,98632.41
2023-05-23T05:14:57.640Z,98635.31
2023-05-23T05:17:23.787Z,98641.53
2023-05-23T05:19:49.958Z,98637.19
2023-05-23T05:22:16.135Z,98638.25
2023-05-23T05:24:42.306Z,98647.94
2023-05-23T05:27:08.431Z,98646.91
2023-05-23T05:29:34.602Z,98638.84
2023-05-23T05:32:00.734Z,98639.88
2023-05-23T05:34:26.905Z,98647.09
2023-05-23T05:36:53.484Z,98653.28
2023-05-23T05:39:19.779Z,98652.47
2023-05-23T05:41:45.931Z,98655.16
2023-05-23T05:44:12.094Z,98660.53
2023-05-23T05:46:38.241Z,98659.72
2023-05-23T05:49:04.377Z,98652.69
2023-05-23T05:51:30.536Z,98659.94
2023-05-23T05:53:56.692Z,98664.47
2023-05-23T05:56:22.849Z,98670.66
2023-05-23T05:58:49.004Z,98676.25
2023-05-23T06:01:15.151Z,98677.91
2023-05-23T06:03:41.482Z,98677.28
2023-05-23T06:06:07.851Z,98683.47
2023-05-23T06:08:34.010Z,98687.41
2023-05-23T06:11:00.160Z,98690.09
2023-05-23T06:13:26.317Z,98687.22
2023-05-23T06:15:52.501Z,98690.09
2023-05-23T06:18:18.681Z,98684.72
2023-05-23T06:20:44.910Z,98694.84
2023-05-23T06:23:11.084Z,98694.66
2023-05-23T06:25:37.237Z,98687.22
2023-05-23T06:28:03.393Z,98692.78
2023-05-23T06:30:29.797Z,98687.41
2023-05-23T06:32:56.307Z,98679.97
2023-05-23T06:35:22.490Z,98677.28
2023-05-23T06:37:48.631Z,98687.81
2023-05-23T06:40:14.773Z,98681.59
2023-05-23T06:42:40.945Z,98689.66
2023-05-23T06:45:07.202Z,98687.41
2023-05-23T06:47:33.363Z,98693.03
2023-05-23T06:49:59.575Z,98699.22
2023-05-23T06:52:25.699Z,98699.22
2023-05-23T06:54:51.827Z,98703.75
2023-05-23T06:57:17.992Z,98708.25
2023-05-23T06:59:44.143Z,98703.94
2023-05-23T07:02:10.364Z,98709.31
2023-05-23T07:04:36.555Z,98713.44
2023-05-23T07:07:02.706Z,98715.50
2023-05-23T07:09:28.855Z,98718.19
2023-05-23T07:11:55.020Z,98724.38
2023-05-23T07:14:21.217Z,98730.78
2023-05-23T07:16:47.396Z,98724.38
2023-05-23T07:19:13.697Z,98739.84
2023-05-23T07:21:39.894Z,98734.50
2023-05-23T07:24:06.084Z,98737.16
2023-05-23T07:26:32.338Z,98744.22
2023-05-23T07:28:58.490Z,98742.78
2023-05-23T07:31:24.687Z,98747.31
2023-05-23T07:33:50.912Z,98755.97
2023-05-23T07:36:17.487Z,98761.34
2023-05-23T07:38:43.654Z,98772.91
2023-05-23T07:41:11.879Z,98764.25
2023-05-23T07:43:38.427Z,98772.50
2023-05-23T07:46:04.623Z,98764.47
2023-05-23T07:48:30.822Z,98771.25
2023-05-23T07:50:57.013Z,98770.63
2023-05-23T07:53:23.173Z,98773.31
2023-05-23T07:55:49.339Z,98769.22
2023-05-23T07:58:15.481Z,98780.34
2023-05-23T08:00:41.855Z,98781.38
2023-05-23T08:03:08.245Z,98786.75
2023-05-23T08:05:34.471Z,98790.47
2023-05-23T08:08:00.659Z,98788.00
2023-05-23T08:10:26.817Z,98781.00
2023-05-23T08:12:52.956Z,98790.69
2023-05-23T08:15:19.121Z,98793.16
2023-05-23T08:17:45.382Z,98800.41
2023-05-23T08:20:11.627Z,98792.34
2023-05-23T08:22:37.772Z,98805.78
2023-05-23T08:25:03.967Z,98801.03
2023-05-23T08:27:30.196Z,98805.13
2023-05-23T08:29:56.378Z,98804.28
2023-05-23T08:32:22.627Z,98806.78
2023-05-23T08:34:48.829Z,98800.78
2023-05-23T08:37:14.990Z,98803.69
2023-05-23T08:39:41.154Z,98816.50
2023-05-23T08:42:07.321Z,98804.97
2023-05-23T08:44:33.495Z,98815.69
2023-05-23T08:46:59.655Z,98799.34
2023-05-23T08:49:25.788Z,98814.84
2023-05-23T08:51:51.947Z,98812.16
2023-05-23T08:54:18.130Z,98805.97
2023-05-23T08:56:44.272Z,98820.44
2023-05-23T08:59:10.544Z,98820.00
2023-05-23T09:01:36.772Z,98821.25
2023-05-23T09:04:02.952Z,98824.56
2023-05-23T09:06:29.099Z,98835.69
2023-05-23T09:08:55.269Z,98832.00
2023-05-23T09:11:21.414Z,98839.00
2023-05-23T09:13:47.546Z,98841.69
2023-05-23T09:16:13.736Z,98840.06
2023-05-23T09:18:39.941Z,98842.75
2023-05-23T09:21:06.086Z,98840.66
2023-05-23T09:23:32.314Z,98843.56
2023-05-23T09:25:58.489Z,98854.28
2023-05-23T09:28:24.624Z,98850.59
2023-05-23T09:30:51.145Z,98846.25
2023-05-23T09:33:17.351Z,98848.94
2023-05-23T09:35:43.522Z,98855.09
2023-05-23T09:38:09.692Z,98850.78
2023-05-23T09:40:35.893Z,98856.16
2023-05-23T09:43:02.061Z,98862.53
2023-05-23T09:45:28.239Z,98861.97
2023-05-23T09:47:54.437Z,98852.03
2023-05-23T09:50:20.669Z,98863.78
2023-05-23T09:52:46.831Z,98857.41
2023-05-23T09:55:12.970Z,98856.59
2023-05-23T09:57:39.144Z,98865.66
2023-05-23T10:00:05.311Z,98866.28
2023-05-23T10:02:31.469Z,98863.59
2023-05-23T10:04:57.631Z,98872.69
2023-05-23T10:07:23.789Z,98862.16
2023-05-23T10:09:49.937Z,98868.56
2023-05-23T10:12:16.085Z,98862.16
2023-05-23T10:14:42.281Z,98874.53
2023-05-23T10:17:08.719Z,98880.94
2023-05-23T10:19:35.192Z,98879.09
2023-05-23T10:22:01.495Z,98885.50
2023-05-23T10:24:27.643Z,98890.88
2023-05-23T10:26:53.795Z,98889.19
2023-05-23T10:29:19.994Z,98892.94
2023-05-23T10:31:46.213Z,98902.03
2023-05-23T10:34:12.370Z,98897.25
2023-05-23T10:36:38.644Z,98905.53
2023-05-23T10:39:04.788Z,98906.34
2023-05-23T10:41:30.953Z,98910.47
2023-05-23T10:43:57.307Z,98910.47
2023-05-23T10:46:23.550Z,98905.94
2023-05-23T10:48:49.854Z,98916.66
2023-05-23T10:51:16.017Z,98912.53
2023-05-23T10:53:42.213Z,98909.03
2023-05-23T10:56:08.384Z,98916.28
2023-05-23T10:58:34.733Z,98926.19
2023-05-23T11:01:00.940Z,98925.34
2023-05-23T11:03:27.201Z,98928.25
2023-05-23T11:05:53.441Z,98938.75
2023-05-23T11:08:19.592Z,98942.28
2023-05-23T11:10:45.749Z,98931.56
2023-05-23T11:13:11.907Z,98940.44
2023-05-23T11:15:38.276Z,98946.00
2023-05-23T11:18:04.496Z,98955.91
2023-05-23T11:20:30.730Z,98953.22
2023-05-23T11:22:56.877Z,98958.78
2023-05-23T11:25:23.022Z,98956.72
2023-05-23T11:27:49.275Z,98956.13
2023-05-23T11:30:15.810Z,98952.19
2023-05-23T11:32:41.996Z,98944.56
2023-05-23T11:35:08.174Z,98944.34
2023-05-23T11:37:34.316Z,98955.09
2023-05-23T11:40:00.474Z,98950.97
2023-05-23T11:42:26.642Z,98948.88
2023-05-23T11:44:52.815Z,98955.91
2023-05-23T11:47:18.988Z,98944.34
2023-05-23T11:49:45.242Z,98944.97
2023-05-23T11:52:11.383Z,98943.31
2023-05-23T11:54:37.535Z,98953.03
2023-05-23T11:57:03.699Z,98943.94
2023-05-23T11:59:29.873Z,98956.72
2023-05-23T12:01:56.036Z,98953.03
2023-05-23T12:04:22.359Z,98957.56
2023-05-23T12:06:48.624Z,98967.47
2023-05-23T12:09:14.764Z,98958.41
2023-05-23T12:11:40.920Z,98970.34
2023-05-23T12:14:07.086Z,98984.00
2023-05-23T12:16:33.275Z,98973.25
2023-05-23T12:18:59.615Z,98968.91
2023-05-23T12:21:25.772Z,98977.59
2023-05-23T12:23:51.953Z,98983.78
2023-05-23T12:26:18.134Z,98983.78
2023-05-23T12:28:44.327Z,98974.69
2023-05-23T12:31:10.529Z,98977.38
2023-05-23T12:33:36.725Z,98975.13
2023-05-23T12:36:02.871Z,98978.00
2023-05-23T12:38:29.032Z,98978.00
2023-05-23T12:40:55.263Z,98978.00
2023-05-23T12:43:21.431Z,98978.63
2023-05-23T12:45:47.575Z,98981.31
2023-05-23T12:48:13.788Z,98980.25
2023-05-23T12:50:39.971Z,98988.53
2023-05-23T12:53:06.138Z,98985.00
2023-05-23T12:55:32.297Z,98986.69
2023-05-23T12:57:58.450Z,98986.88
2023-05-23T13:00:24.650Z,98982.75
2023-05-23T13:02:50.997Z,98987.09
2023-05-23T13:05:17.229Z,98986.06
2023-05-23T13:07:43.362Z,98986.06
2023-05-23T13:10:09.673Z,98975.31
2023-05-23T13:12:35.851Z,98964.16
2023-05-23T13:15:02.024Z,98968.91
2023-05-23T13:17:28.315Z,98968.91
2023-05-23T13:19:54.480Z,98968.31
2023-05-23T13:22:20.654Z,98977.19
2023-05-23T13:24:46.820Z,98976.38
2023-05-23T13:27:12.992Z,98986.88
2023-05-23T13:29:39.182Z,98986.06
2023-05-23T13:32:05.373Z,98985.00
2023-05-23T13:34:31.533Z,98985.44
2023-05-23T13:36:57.679Z,98979.88
2023-05-23T13:39:23.852Z,98982.75
2023-05-23T13:41:50.003Z,98980.88
2023-05-23T13:44:16.151Z,98973.69
2023-05-23T13:46:42.509Z,98984.41
2023-05-23T13:49:08.676Z,98976.38
2023-05-23T13:51:34.822Z,98979.06
2023-05-23T13:54:01.037Z,98987.09
2023-05-23T13:56:27.206Z,98994.94
2023-05-23T13:58:53.383Z,98978.81
2023-05-23T14:01:19.660Z,98974.50
2023-05-23T14:03:45.869Z,98980.69
2023-05-23T14:06:12.014Z,98973.47
2023-05-23T14:08:38.203Z,98969.97
2023-05-23T14:11:04.348Z,98962.94
2023-05-23T14:13:30.503Z,98966.44
2023-05-23T14:15:56.755Z,98973.88
2023-05-23T14:18:22.949Z,98965.63
2023-05-23T14:20:49.087Z,98967.47
2023-05-23T14:23:15.358Z,98965.22
2023-05-23T14:25:41.786Z,98966.44
2023-05-23T14:28:08.143Z,98960.84
2023-05-23T14:30:34.312Z,98974.28
2023-05-23T14:33:00.492Z,98972.63
2023-05-23T14:35:26.710Z,98962.94
2023-05-23T14:37:52.917Z,98969.97
2023-05-23T14:40:19.064Z,98961.72
2023-05-23T14:42:45.232Z,98962.72
2023-05-23T14:45:11.394Z,98960.84
2023-05-23T14:47:37.699Z,98968.91
2023-05-23T14:50:03.916Z,98970.78
2023-05-23T14:52:30.087Z,98968.91
2023-05-23T14:54:56.250Z,98966.22
2023-05-23T14:57:22.401Z,98977.81
2023-05-23T14:59:48.573Z,98974.28
2023-05-23T15:02:14.782Z,98969.97
2023-05-23T15:04:40.981Z,98966.22
2023-05-23T15:07:07.162Z,98963.53
2023-05-23T15:09:33.333Z,98957.16
2023-05-23T15:11:59.520Z,98965.22
2023-05-23T15:14:25.764Z,98967.91
2023-05-23T15:16:51.984Z,98973.25
2023-05-23T15:19:18.185Z,98972.22
2023-05-23T15:21:50.287Z,98974.91
2023-05-23T15:24:17.483Z,98973.03
2023-05-23T15:26:43.637Z,98978.41
2023-05-23T15:29:09.824Z,98968.72
2023-05-23T15:31:36.026Z,98969.53
2023-05-23T15:34:02.190Z,98964.97
2023-05-23T15:36:28.355Z,98958.59
2023-05-23T15:38:54.518Z,98967.47
2023-05-23T15:41:20.665Z,98970.34
2023-05-23T15:43:46.813Z,98967.47
2023-05-23T15:46:13.009Z,98955.91
2023-05-23T15:48:39.234Z,98948.69
2023-05-23T15:51:05.484Z,98949.72
2023-05-23T15:53:34.522Z,98961.28
2023-05-23T15:56:03.446Z,98963.97
2023-05-23T15:58:29.619Z,98962.09
2023-05-23T16:00:55.772Z,98970.16
2023-05-23T16:03:21.976Z,98960.47
2023-05-23T16:05:48.184Z,98960.47
2023-05-23T16:08:14.326Z,98973.88
2023-05-23T16:10:40.454Z,98957.78
2023-05-23T16:13:06.636Z,98961.28
2023-05-23T16:15:32.778Z,98959.41
2023-05-23T16:17:59.054Z,98962.09
2023-05-23T16:20:25.258Z,98970.16
2023-05-23T16:22:51.395Z,98966.66
2023-05-23T16:25:17.544Z,98975.53
2023-05-23T16:27:43.711Z,98974.69
2023-05-23T16:30:09.948Z,98974.69
2023-05-23T16:32:36.197Z,98967.47
2023-05-23T16:35:02.418Z,98975.53
2023-05-23T16:37:28.589Z,98977.19
2023-05-23T16:39:54.743Z,98978.00
2023-05-23T16:42:20.912Z,98966.44
2023-05-23T16:44:47.087Z,98977.19
2023-05-23T16:47:13.290Z,98973.88
2023-05-23T16:49:39.448Z,98972.03
2023-05-23T16:52:05.608Z,98971.19
2023-05-23T16:54:31.770Z,98978.22
2023-05-23T16:56:58.021Z,98979.88
2023-05-23T16:59:24.180Z,98985.25
2023-05-23T17:01:52.382Z,98973.66
2023-05-23T17:04:20.535Z,98968.09
2023-05-23T17:06:46.830Z,98978.81
2023-05-23T17:09:12.973Z,98976.97
2023-05-23T17:11:39.160Z,98978.00
2023-05-23T17:14:05.298Z,98978.81
2023-05-23T17:16:31.567Z,98977.78
2023-05-23T17:18:57.878Z,98991.19
2023-05-23T17:21:24.049Z,98989.56
2023-05-23T17:23:50.189Z,98986.88
2023-05-23T17:26:19.814Z,98985.25
2023-05-23T17:28:46.122Z,98994.31
2023-05-23T17:31:12.348Z,98988.75
2023-05-23T17:33:38.546Z,98985.25
2023-05-23T17:36:04.689Z,98985.25
2023-05-23T17:38:33.171Z,98995.97
2023-05-23T17:40:59.362Z,98986.06
2023-05-23T17:43:25.516Z,98995.97
2023-05-23T17:45:51.669Z,98984.38
2023-05-23T17:48:17.825Z,98986.06
2023-05-23T17:50:44.163Z,98988.75
2023-05-23T17:53:10.415Z,98986.06
2023-05-23T17:55:36.605Z,98985.25
2023-05-23T17:58:02.752Z,98993.28
2023-05-23T18:00:28.963Z,98991.44
2023-05-23T18:02:55.201Z,98990.59
2023-05-23T18:05:21.385Z,98982.56
2023-05-23T18:07:47.534Z,98989.75
2023-05-23T18:10:13.707Z,98992.66
2023-05-23T18:12:39.863Z,98988.94
2023-05-23T18:15:06.141Z,98990.59
2023-05-23T18:17:32.484Z,99001.34
2023-05-23T18:19:58.709Z,99002.34
2023-05-23T18:22:24.860Z,99002.34
2023-05-23T18:24:51.012Z,99003.19
2023-05-23T18:27:17.142Z,99007.53
2023-05-23T18:29:43.289Z,99005.88
2023-05-23T18:32:09.454Z,99006.91
2023-05-23T18:34:35.591Z,99006.91
2023-05-23T18:37:01.758Z,99006.91
2023-05-23T18:39:27.923Z,99006.09
2023-05-23T18:41:54.065Z,99011.47
2023-05-23T18:44:21.127Z,99006.09
2023-05-23T18:46:52.281Z,99008.78
2023-05-23T18:49:18.584Z,99002.56
2023-05-23T18:51:44.725Z,99012.28
2023-05-23T18:54:10.901Z,99024.88
2023-05-23T18:56:37.044Z,99019.50
2023-05-23T18:59:03.204Z,99015.78
2023-05-23T19:01:29.482Z,99019.50
2023-05-23T19:03:55.714Z,99024.88
2023-05-23T19:06:21.892Z,99032.94
2023-05-23T19:08:48.109Z,99031.06
2023-05-23T19:11:14.273Z,99031.88
2023-05-23T19:13:40.420Z,99034.75
2023-05-23T19:16:06.616Z,99039.31
2023-05-23T19:18:32.972Z,99044.91
2023-05-23T19:20:59.162Z,99049.22
2023-05-23T19:23:25.375Z,99050.28
2023-05-23T19:25:51.637Z,99056.47
2023-05-23T19:28:17.770Z,99060.78
2023-05-23T19:30:44.134Z,99061.84
2023-05-23T19:33:10.641Z,99058.31
2023-05-23T19:35:36.887Z,99069.88
2023-05-23T19:38:03.068Z,99076.06
2023-05-23T19:40:29.228Z,99069.06
2023-05-23T19:42:55.358Z,99075.25
2023-05-23T19:45:21.569Z,99078.75
2023-05-23T19:47:47.722Z,99080.63
2023-05-23T19:50:13.905Z,99076.06
2023-05-23T19:52:40.080Z,99074.44
2023-05-23T19:55:06.265Z,99069.06
2023-05-23T19:57:32.445Z,99076.25
2023-05-23T19:59:59.017Z,99078.94
2023-05-23T20:02:25.213Z,99084.53
2023-05-23T20:04:51.403Z,99082.47
2023-05-23T20:07:17.678Z,99091.34
2023-05-23T20:09:43.891Z,99086.19
2023-05-23T20:12:10.084Z,99095.28
2023-05-23T20:14:36.249Z,99094.22
2023-05-23T20:17:02.427Z,99097.97
2023-05-23T20:19:28.879Z,99099.81
2023-05-23T20:21:58.699Z,99108.69
2023-05-23T20:24:24.836Z,99118.63
2023-05-23T20:26:51.074Z,99115.06
2023-05-23T20:29:17.268Z,99125.81
2023-05-23T20:31:43.561Z,99143.78
2023-05-23T20:34:09.842Z,99136.56
2023-05-23T20:36:36.007Z,99142.97
2023-05-23T20:39:02.279Z,99138.41
2023-05-23T20:41:28.468Z,99138.59
2023-05-23T20:43:54.643Z,99138.59
2023-05-23T20:46:20.841Z,99138.59
2023-05-23T20:48:47.028Z,99145.84
2023-05-23T20:51:13.215Z,99148.53
2023-05-23T20:53:39.354Z,99153.88
2023-05-23T20:56:05.498Z,99150.38
2023-05-23T20:58:31.705Z,99153.25
2023-05-23T21:00:57.901Z,99154.94
2023-05-23T21:03:24.090Z,99146.88
2023-05-23T21:05:50.271Z,99149.56
2023-05-23T21:08:16.435Z,99154.13
2023-05-23T21:10:43.812Z,99162.16
2023-05-23T21:13:11.687Z,99158.63
2023-05-23T21:15:37.842Z,99158.63
2023-05-23T21:18:04.064Z,99151.44
2023-05-23T21:20:30.302Z,99154.94
2023-05-23T21:22:56.471Z,99160.31
2023-05-23T21:25:22.616Z,99156.78
2023-05-23T21:27:48.765Z,99158.63
2023-05-23T21:30:14.905Z,99159.47
2023-05-23T21:32:41.127Z,99158.63
2023-05-23T21:35:07.335Z,99157.00
2023-05-23T21:37:33.474Z,99158.03
2023-05-23T21:39:59.617Z,99153.47
2023-05-23T21:42:25.791Z,99153.47
2023-05-23T21:44:52.033Z,99156.34
2023-05-23T21:47:18.268Z,99159.88
2023-05-23T21:49:44.524Z,99150.16
2023-05-23T21:52:10.659Z,99153.69
2023-05-23T21:54:36.798Z,99148.31
2023-05-23T21:57:02.962Z,99153.69
2023-05-23T21:59:29.106Z,99155.53
2023-05-23T22:01:55.314Z,99160.09
2023-05-23T22:04:21.514Z,99160.09
2023-05-23T22:06:47.670Z,99161.09
2023-05-23T22:09:13.955Z,99149.53
2023-05-23T22:11:40.210Z,99143.34
2023-05-23T22:14:06.416Z,99144.38
2023-05-23T22:16:32.624Z,99142.72
2023-05-23T22:18:58.945Z,99148.91
2023-05-23T22:21:25.172Z,99151.81
2023-05-23T22:23:51.312Z,99154.28
2023-05-23T22:26:17.472Z,99150.78
2023-05-23T22:28:43.644Z,99153.47
2023-05-23T22:31:12.074Z,99149.13
2023-05-23T22:33:39.160Z,99139.41
2023-05-23T22:36:05.309Z,99146.66
2023-05-23T22:38:31.488Z,99156.56
2023-05-23T22:40:57.650Z,99148.50
2023-05-23T22:43:23.869Z,99144.16
2023-05-23T22:45:50.177Z,99153.88
2023-05-23T22:48:16.506Z,99146.03
2023-05-23T22:50:42.892Z,99146.03
2023-05-23T22:53:09.245Z,99147.06
2023-05-23T22:55:35.409Z,99139.84
2023-05-23T22:58:01.572Z,99143.34
2023-05-23T23:00:27.729Z,99143.53
2023-05-23T23:02:53.996Z,99145.19
2023-05-23T23:05:20.232Z,99146.03
2023-05-23T23:07:46.373Z,99145.19
2023-05-23T23:10:12.531Z,99140.84
2023-05-23T23:12:38.696Z,99142.72
2023-05-23T23:15:04.835Z,99144.56
2023-05-23T23:17:31.082Z,99139.19
2023-05-23T23:19:57.279Z,99148.28
2023-05-23T23:22:23.444Z,99142.94
2023-05-23T23:24:49.617Z,99147.25
2023-05-23T23:27:15.774Z,99143.13
2023-05-23T23:29:41.922Z,99150.34
2023-05-23T23:32:08.085Z,99152.00
2023-05-23T23:34:34.227Z,99146.00
2023-05-23T23:37:00.380Z,99161.09
2023-05-23T23:39:26.548Z,99162.09
2023-05-23T23:41:52.743Z,99156.72
2023-05-23T23:44:18.902Z,99157.78
2023-05-23T23:46:45.113Z,99167.69
2023-05-23T23:49:11.288Z,99161.47
2023-05-23T23:51:37.440Z,99172.19
2023-05-23T23:54:03.597Z,99167.88
2023-05-23T23:56:29.748Z,99170.56
2023-05-23T23:58:55.894Z,99174.28
